sensor_id;sensor_type;location;lat;lon;timestamp;P1;durP1;ratioP1;P2;durP2;ratioP2
58015;SDS011;43809;52.110;20.964;2023-04-24T00:01:13;11.57;;;8.05;;
58015;SDS011;43809;52.110;20.964;2023-04-24T00:03:15;12.55;;;8.68;;
58015;SDS011;43809;52.110;20.964;2023-04-24T00:05:15;13.57;;;9.10;;
58015;SDS011;43809;52.110;20.964;2023-04-24T00:07:15;13.13;;;9.07;;
58015;SDS011;43809;52.110;20.964;2023-04-24T00:09:20;14.15;;;8.95;;
58015;SDS011;43809;52.110;20.964;2023-04-24T00:11:22;11.03;;;8.17;;
58015;SDS011;43809;52.110;20.964;2023-04-24T00:13:22;9.68;;;7.30;;
58015;SDS011;43809;52.110;20.964;2023-04-24T00:15:22;13.70;;;8.93;;
58015;SDS011;43809;52.110;20.964;2023-04-24T00:17:24;14.40;;;8.98;;
58015;SDS011;43809;52.110;20.964;2023-04-24T00:19:24;12.10;;;7.90;;
58015;SDS011;43809;52.110;20.964;2023-04-24T00:21:24;13.77;;;9.10;;
58015;SDS011;43809;52.110;20.964;2023-04-24T00:23:25;11.90;;;8.15;;
58015;SDS011;43809;52.110;20.964;2023-04-24T00:25:25;10.45;;;8.25;;
58015;SDS011;43809;52.110;20.964;2023-04-24T00:27:26;12.57;;;8.77;;
58015;SDS011;43809;52.110;20.964;2023-04-24T00:29:26;16.95;;;9.27;;
58015;SDS011;43809;52.110;20.964;2023-04-24T00:31:26;12.48;;;9.57;;
58015;SDS011;43809;52.110;20.964;2023-04-24T00:33:26;13.27;;;9.07;;
58015;SDS011;43809;52.110;20.964;2023-04-24T00:35:26;13.00;;;9.13;;
58015;SDS011;43809;52.110;20.964;2023-04-24T00:37:27;11.82;;;8.98;;
58015;SDS011;43809;52.110;20.964;2023-04-24T00:39:27;11.10;;;9.02;;
58015;SDS011;43809;52.110;20.964;2023-04-24T00:41:28;15.32;;;9.65;;
58015;SDS011;43809;52.110;20.964;2023-04-24T00:43:29;11.52;;;9.15;;
58015;SDS011;43809;52.110;20.964;2023-04-24T00:45:29;14.07;;;9.50;;
58015;SDS011;43809;52.110;20.964;2023-04-24T00:47:31;13.18;;;9.27;;
58015;SDS011;43809;52.110;20.964;2023-04-24T00:49:32;9.55;;;7.30;;
58015;SDS011;43809;52.110;20.964;2023-04-24T00:51:33;9.00;;;6.25;;
58015;SDS011;43809;52.110;20.964;2023-04-24T00:53:34;7.05;;;5.60;;
58015;SDS011;43809;52.110;20.964;2023-04-24T00:55:34;7.57;;;5.22;;
58015;SDS011;43809;52.110;20.964;2023-04-24T00:59:38;6.03;;;3.78;;
58015;SDS011;43809;52.110;20.964;2023-04-24T01:03:43;4.13;;;3.28;;
58015;SDS011;43809;52.110;20.964;2023-04-24T01:05:43;5.27;;;4.20;;
58015;SDS011;43809;52.110;20.964;2023-04-24T01:07:44;7.05;;;4.90;;
58015;SDS011;43809;52.110;20.964;2023-04-24T01:09:45;4.93;;;3.97;;
58015;SDS011;43809;52.110;20.964;2023-04-24T01:13:48;6.00;;;4.05;;
58015;SDS011;43809;52.110;20.964;2023-04-24T01:15:48;6.43;;;4.15;;
58015;SDS011;43809;52.110;20.964;2023-04-24T01:17:48;6.22;;;4.97;;
58015;SDS011;43809;52.110;20.964;2023-04-24T01:19:48;5.77;;;4.07;;
58015;SDS011;43809;52.110;20.964;2023-04-24T01:21:50;4.50;;;3.75;;
58015;SDS011;43809;52.110;20.964;2023-04-24T01:23:51;8.85;;;6.78;;
58015;SDS011;43809;52.110;20.964;2023-04-24T01:25:51;8.85;;;6.40;;
58015;SDS011;43809;52.110;20.964;2023-04-24T01:27:52;10.05;;;6.32;;
58015;SDS011;43809;52.110;20.964;2023-04-24T01:29:52;8.50;;;6.07;;
58015;SDS011;43809;52.110;20.964;2023-04-24T01:31:54;6.53;;;5.43;;
58015;SDS011;43809;52.110;20.964;2023-04-24T01:33:55;7.38;;;5.13;;
58015;SDS011;43809;52.110;20.964;2023-04-24T01:35:55;9.68;;;6.47;;
58015;SDS011;43809;52.110;20.964;2023-04-24T01:37:56;10.55;;;7.63;;
58015;SDS011;43809;52.110;20.964;2023-04-24T01:39:56;10.60;;;7.72;;
58015;SDS011;43809;52.110;20.964;2023-04-24T01:41:56;11.93;;;8.38;;
58015;SDS011;43809;52.110;20.964;2023-04-24T01:43:57;12.25;;;9.32;;
58015;SDS011;43809;52.110;20.964;2023-04-24T01:45:58;11.25;;;8.38;;
58015;SDS011;43809;52.110;20.964;2023-04-24T01:47:58;9.65;;;7.65;;
58015;SDS011;43809;52.110;20.964;2023-04-24T01:49:58;12.75;;;8.85;;
58015;SDS011;43809;52.110;20.964;2023-04-24T01:51:58;17.02;;;10.20;;
58015;SDS011;43809;52.110;20.964;2023-04-24T01:53:59;13.48;;;9.60;;
58015;SDS011;43809;52.110;20.964;2023-04-24T01:55:59;11.55;;;8.75;;
58015;SDS011;43809;52.110;20.964;2023-04-24T01:58:00;10.95;;;7.85;;
58015;SDS011;43809;52.110;20.964;2023-04-24T02:00:01;12.82;;;8.90;;
58015;SDS011;43809;52.110;20.964;2023-04-24T02:02:04;17.05;;;10.30;;
58015;SDS011;43809;52.110;20.964;2023-04-24T02:04:04;13.85;;;9.88;;
58015;SDS011;43809;52.110;20.964;2023-04-24T02:06:05;14.75;;;10.27;;
58015;SDS011;43809;52.110;20.964;2023-04-24T02:08:05;14.43;;;10.32;;
58015;SDS011;43809;52.110;20.964;2023-04-24T02:10:06;14.88;;;9.75;;
58015;SDS011;43809;52.110;20.964;2023-04-24T02:12:06;15.00;;;10.32;;
58015;SDS011;43809;52.110;20.964;2023-04-24T02:14:06;15.80;;;10.57;;
58015;SDS011;43809;52.110;20.964;2023-04-24T02:16:06;14.80;;;9.68;;
58015;SDS011;43809;52.110;20.964;2023-04-24T02:18:07;15.75;;;10.05;;
58015;SDS011;43809;52.110;20.964;2023-04-24T02:20:07;17.27;;;10.85;;
58015;SDS011;43809;52.110;20.964;2023-04-24T02:22:07;15.25;;;10.25;;
58015;SDS011;43809;52.110;20.964;2023-04-24T02:24:07;15.50;;;10.35;;
58015;SDS011;43809;52.110;20.964;2023-04-24T02:26:14;14.18;;;10.20;;
58015;SDS011;43809;52.110;20.964;2023-04-24T02:28:15;14.98;;;10.90;;
58015;SDS011;43809;52.110;20.964;2023-04-24T02:30:15;13.30;;;9.57;;
58015;SDS011;43809;52.110;20.964;2023-04-24T02:32:15;14.77;;;10.52;;
58015;SDS011;43809;52.110;20.964;2023-04-24T02:34:19;15.38;;;11.02;;
58015;SDS011;43809;52.110;20.964;2023-04-24T02:36:19;15.48;;;10.95;;
58015;SDS011;43809;52.110;20.964;2023-04-24T02:38:19;15.15;;;10.07;;
58015;SDS011;43809;52.110;20.964;2023-04-24T02:40:19;13.75;;;10.85;;
58015;SDS011;43809;52.110;20.964;2023-04-24T02:42:19;15.90;;;11.50;;
58015;SDS011;43809;52.110;20.964;2023-04-24T02:44:20;16.25;;;11.05;;
58015;SDS011;43809;52.110;20.964;2023-04-24T02:46:22;17.60;;;10.50;;
58015;SDS011;43809;52.110;20.964;2023-04-24T02:48:23;14.60;;;11.13;;
58015;SDS011;43809;52.110;20.964;2023-04-24T02:50:23;16.33;;;10.95;;
58015;SDS011;43809;52.110;20.964;2023-04-24T02:52:23;13.30;;;9.98;;
58015;SDS011;43809;52.110;20.964;2023-04-24T02:54:24;14.32;;;9.88;;
58015;SDS011;43809;52.110;20.964;2023-04-24T02:56:24;15.95;;;9.48;;
58015;SDS011;43809;52.110;20.964;2023-04-24T02:58:24;11.15;;;7.65;;
58015;SDS011;43809;52.110;20.964;2023-04-24T03:00:24;9.73;;;6.57;;
58015;SDS011;43809;52.110;20.964;2023-04-24T03:02:25;7.72;;;5.72;;
58015;SDS011;43809;52.110;20.964;2023-04-24T03:04:25;11.32;;;7.32;;
58015;SDS011;43809;52.110;20.964;2023-04-24T03:06:26;12.93;;;9.10;;
58015;SDS011;43809;52.110;20.964;2023-04-24T03:08:27;14.68;;;10.10;;
58015;SDS011;43809;52.110;20.964;2023-04-24T03:10:27;12.55;;;9.20;;
58015;SDS011;43809;52.110;20.964;2023-04-24T03:12:27;12.32;;;9.23;;
58015;SDS011;43809;52.110;20.964;2023-04-24T03:14:27;14.57;;;9.75;;
58015;SDS011;43809;52.110;20.964;2023-04-24T03:16:31;12.15;;;9.77;;
58015;SDS011;43809;52.110;20.964;2023-04-24T03:18:32;13.82;;;8.57;;
58015;SDS011;43809;52.110;20.964;2023-04-24T03:20:32;11.90;;;9.13;;
58015;SDS011;43809;52.110;20.964;2023-04-24T03:22:32;14.07;;;9.27;;
58015;SDS011;43809;52.110;20.964;2023-04-24T03:24:33;15.30;;;9.85;;
58015;SDS011;43809;52.110;20.964;2023-04-24T03:26:40;12.52;;;9.10;;
58015;SDS011;43809;52.110;20.964;2023-04-24T03:28:40;11.77;;;9.27;;
58015;SDS011;43809;52.110;20.964;2023-04-24T03:30:40;12.07;;;9.05;;
58015;SDS011;43809;52.110;20.964;2023-04-24T03:32:41;14.05;;;9.82;;
58015;SDS011;43809;52.110;20.964;2023-04-24T03:34:41;12.88;;;9.15;;
58015;SDS011;43809;52.110;20.964;2023-04-24T03:36:41;11.35;;;9.00;;
58015;SDS011;43809;52.110;20.964;2023-04-24T03:38:41;13.18;;;9.50;;
58015;SDS011;43809;52.110;20.964;2023-04-24T03:40:42;11.77;;;8.13;;
58015;SDS011;43809;52.110;20.964;2023-04-24T03:42:42;13.98;;;9.20;;
58015;SDS011;43809;52.110;20.964;2023-04-24T03:44:42;12.07;;;8.85;;
58015;SDS011;43809;52.110;20.964;2023-04-24T03:46:42;13.10;;;9.48;;
58015;SDS011;43809;52.110;20.964;2023-04-24T03:48:43;15.05;;;10.23;;
58015;SDS011;43809;52.110;20.964;2023-04-24T03:50:43;16.45;;;9.88;;
58015;SDS011;43809;52.110;20.964;2023-04-24T03:52:43;14.18;;;10.20;;
58015;SDS011;43809;52.110;20.964;2023-04-24T03:56:58;12.88;;;10.27;;
58015;SDS011;43809;52.110;20.964;2023-04-24T03:58:59;15.43;;;10.05;;
58015;SDS011;43809;52.110;20.964;2023-04-24T04:00:59;12.57;;;9.48;;
58015;SDS011;43809;52.110;20.964;2023-04-24T04:03:00;14.80;;;9.75;;
58015;SDS011;43809;52.110;20.964;2023-04-24T04:05:00;15.15;;;9.73;;
58015;SDS011;43809;52.110;20.964;2023-04-24T04:07:00;21.20;;;11.25;;
58015;SDS011;43809;52.110;20.964;2023-04-24T04:09:02;13.40;;;9.05;;
58015;SDS011;43809;52.110;20.964;2023-04-24T04:11:09;13.57;;;9.05;;
58015;SDS011;43809;52.110;20.964;2023-04-24T04:13:09;14.20;;;9.55;;
58015;SDS011;43809;52.110;20.964;2023-04-24T04:15:09;12.80;;;9.65;;
58015;SDS011;43809;52.110;20.964;2023-04-24T04:17:10;14.40;;;9.10;;
58015;SDS011;43809;52.110;20.964;2023-04-24T04:19:12;12.55;;;9.93;;
58015;SDS011;43809;52.110;20.964;2023-04-24T04:21:12;14.55;;;9.93;;
58015;SDS011;43809;52.110;20.964;2023-04-24T04:23:12;13.82;;;9.48;;
58015;SDS011;43809;52.110;20.964;2023-04-24T04:25:13;15.95;;;9.65;;
58015;SDS011;43809;52.110;20.964;2023-04-24T04:27:13;14.23;;;9.82;;
58015;SDS011;43809;52.110;20.964;2023-04-24T04:29:13;13.23;;;8.88;;
58015;SDS011;43809;52.110;20.964;2023-04-24T04:31:15;14.68;;;9.57;;
58015;SDS011;43809;52.110;20.964;2023-04-24T04:33:15;15.40;;;9.50;;
58015;SDS011;43809;52.110;20.964;2023-04-24T04:35:16;20.20;;;9.30;;
58015;SDS011;43809;52.110;20.964;2023-04-24T04:37:16;16.70;;;9.80;;
58015;SDS011;43809;52.110;20.964;2023-04-24T04:39:17;16.83;;;9.73;;
58015;SDS011;43809;52.110;20.964;2023-04-24T04:41:18;14.05;;;9.20;;
58015;SDS011;43809;52.110;20.964;2023-04-24T04:43:18;14.15;;;9.25;;
58015;SDS011;43809;52.110;20.964;2023-04-24T04:45:19;13.70;;;9.70;;
58015;SDS011;43809;52.110;20.964;2023-04-24T04:47:20;12.88;;;9.27;;
58015;SDS011;43809;52.110;20.964;2023-04-24T04:49:23;15.15;;;9.57;;
58015;SDS011;43809;52.110;20.964;2023-04-24T04:51:24;18.75;;;9.70;;
58015;SDS011;43809;52.110;20.964;2023-04-24T04:53:24;15.57;;;10.02;;
58015;SDS011;43809;52.110;20.964;2023-04-24T04:55:24;14.45;;;10.00;;
58015;SDS011;43809;52.110;20.964;2023-04-24T04:57:25;11.88;;;9.27;;
58015;SDS011;43809;52.110;20.964;2023-04-24T04:59:25;12.93;;;9.65;;
58015;SDS011;43809;52.110;20.964;2023-04-24T05:01:26;14.85;;;9.98;;
58015;SDS011;43809;52.110;20.964;2023-04-24T05:03:27;16.95;;;10.07;;
58015;SDS011;43809;52.110;20.964;2023-04-24T05:05:27;16.58;;;9.50;;
58015;SDS011;43809;52.110;20.964;2023-04-24T05:07:28;15.88;;;10.50;;
58015;SDS011;43809;52.110;20.964;2023-04-24T05:09:28;13.17;;;9.03;;
58015;SDS011;43809;52.110;20.964;2023-04-24T05:11:29;14.63;;;9.77;;
58015;SDS011;43809;52.110;20.964;2023-04-24T05:13:30;13.02;;;9.63;;
58015;SDS011;43809;52.110;20.964;2023-04-24T05:15:30;10.87;;;8.27;;
58015;SDS011;43809;52.110;20.964;2023-04-24T05:17:30;13.23;;;9.02;;
58015;SDS011;43809;52.110;20.964;2023-04-24T05:19:30;18.10;;;10.07;;
58015;SDS011;43809;52.110;20.964;2023-04-24T05:21:32;14.25;;;8.73;;
58015;SDS011;43809;52.110;20.964;2023-04-24T05:23:33;12.23;;;9.52;;
58015;SDS011;43809;52.110;20.964;2023-04-24T05:25:33;14.18;;;9.15;;
58015;SDS011;43809;52.110;20.964;2023-04-24T05:27:35;16.60;;;10.02;;
58015;SDS011;43809;52.110;20.964;2023-04-24T05:29:35;13.73;;;9.90;;
58015;SDS011;43809;52.110;20.964;2023-04-24T05:31:35;13.37;;;8.77;;
58015;SDS011;43809;52.110;20.964;2023-04-24T05:33:36;14.85;;;10.05;;
58015;SDS011;43809;52.110;20.964;2023-04-24T05:35:36;13.63;;;9.00;;
58015;SDS011;43809;52.110;20.964;2023-04-24T05:37:36;27.38;;;9.63;;
58015;SDS011;43809;52.110;20.964;2023-04-24T05:39:36;15.02;;;8.68;;
58015;SDS011;43809;52.110;20.964;2023-04-24T05:41:37;18.88;;;8.23;;
58015;SDS011;43809;52.110;20.964;2023-04-24T05:43:38;14.20;;;9.40;;
58015;SDS011;43809;52.110;20.964;2023-04-24T05:45:38;14.15;;;8.77;;
58015;SDS011;43809;52.110;20.964;2023-04-24T05:47:38;12.25;;;8.05;;
58015;SDS011;43809;52.110;20.964;2023-04-24T05:49:40;9.23;;;7.63;;
58015;SDS011;43809;52.110;20.964;2023-04-24T05:51:40;74.85;;;12.20;;
58015;SDS011;43809;52.110;20.964;2023-04-24T05:53:41;43.92;;;10.90;;
58015;SDS011;43809;52.110;20.964;2023-04-24T05:55:41;15.20;;;6.93;;
58015;SDS011;43809;52.110;20.964;2023-04-24T05:57:41;13.67;;;8.10;;
58015;SDS011;43809;52.110;20.964;2023-04-24T05:59:41;11.77;;;7.30;;
58015;SDS011;43809;52.110;20.964;2023-04-24T06:01:42;11.57;;;8.48;;
58015;SDS011;43809;52.110;20.964;2023-04-24T06:03:42;13.73;;;7.82;;
58015;SDS011;43809;52.110;20.964;2023-04-24T06:05:42;11.55;;;8.25;;
58015;SDS011;43809;52.110;20.964;2023-04-24T06:07:43;9.40;;;6.65;;
58015;SDS011;43809;52.110;20.964;2023-04-24T06:09:43;12.88;;;7.88;;
58015;SDS011;43809;52.110;20.964;2023-04-24T06:11:43;10.10;;;6.28;;
58015;SDS011;43809;52.110;20.964;2023-04-24T06:13:43;10.73;;;7.60;;
58015;SDS011;43809;52.110;20.964;2023-04-24T06:15:43;9.53;;;7.33;;
58015;SDS011;43809;52.110;20.964;2023-04-24T06:17:44;10.70;;;7.30;;
58015;SDS011;43809;52.110;20.964;2023-04-24T06:19:44;9.93;;;7.40;;
58015;SDS011;43809;52.110;20.964;2023-04-24T06:21:44;9.52;;;6.75;;
58015;SDS011;43809;52.110;20.964;2023-04-24T06:23:44;11.00;;;7.50;;
58015;SDS011;43809;52.110;20.964;2023-04-24T06:25:46;12.20;;;7.53;;
58015;SDS011;43809;52.110;20.964;2023-04-24T06:27:46;9.90;;;6.47;;
58015;SDS011;43809;52.110;20.964;2023-04-24T06:29:46;9.33;;;7.77;;
58015;SDS011;43809;52.110;20.964;2023-04-24T06:31:56;11.30;;;7.35;;
58015;SDS011;43809;52.110;20.964;2023-04-24T06:33:56;9.13;;;7.20;;
58015;SDS011;43809;52.110;20.964;2023-04-24T06:35:56;9.87;;;6.53;;
58015;SDS011;43809;52.110;20.964;2023-04-24T06:37:56;10.30;;;7.90;;
58015;SDS011;43809;52.110;20.964;2023-04-24T06:39:57;10.68;;;7.55;;
58015;SDS011;43809;52.110;20.964;2023-04-24T06:41:57;9.80;;;7.03;;
58015;SDS011;43809;52.110;20.964;2023-04-24T06:43:57;8.52;;;6.78;;
58015;SDS011;43809;52.110;20.964;2023-04-24T06:45:57;8.53;;;6.93;;
58015;SDS011;43809;52.110;20.964;2023-04-24T06:47:58;11.57;;;8.10;;
58015;SDS011;43809;52.110;20.964;2023-04-24T06:49:58;14.98;;;8.13;;
58015;SDS011;43809;52.110;20.964;2023-04-24T06:51:58;9.80;;;7.22;;
58015;SDS011;43809;52.110;20.964;2023-04-24T06:53:59;11.57;;;7.17;;
58015;SDS011;43809;52.110;20.964;2023-04-24T06:55:59;10.30;;;7.80;;
58015;SDS011;43809;52.110;20.964;2023-04-24T06:57:59;13.10;;;7.50;;
58015;SDS011;43809;52.110;20.964;2023-04-24T06:59:59;9.40;;;7.20;;
58015;SDS011;43809;52.110;20.964;2023-04-24T07:02:00;7.78;;;6.55;;
58015;SDS011;43809;52.110;20.964;2023-04-24T07:06:04;8.13;;;7.10;;
58015;SDS011;43809;52.110;20.964;2023-04-24T07:08:04;13.40;;;6.80;;
58015;SDS011;43809;52.110;20.964;2023-04-24T07:10:05;13.57;;;6.10;;
58015;SDS011;43809;52.110;20.964;2023-04-24T07:12:05;7.38;;;6.45;;
58015;SDS011;43809;52.110;20.964;2023-04-24T07:14:06;11.15;;;7.57;;
58015;SDS011;43809;52.110;20.964;2023-04-24T07:16:06;12.25;;;7.28;;
58015;SDS011;43809;52.110;20.964;2023-04-24T07:18:06;7.70;;;6.60;;
58015;SDS011;43809;52.110;20.964;2023-04-24T07:20:07;8.63;;;6.97;;
58015;SDS011;43809;52.110;20.964;2023-04-24T07:22:09;9.50;;;7.95;;
58015;SDS011;43809;52.110;20.964;2023-04-24T07:24:11;18.40;;;9.23;;
58015;SDS011;43809;52.110;20.964;2023-04-24T07:26:12;16.27;;;7.40;;
58015;SDS011;43809;52.110;20.964;2023-04-24T07:28:14;10.23;;;7.53;;
58015;SDS011;43809;52.110;20.964;2023-04-24T07:30:15;9.00;;;7.45;;
58015;SDS011;43809;52.110;20.964;2023-04-24T07:32:15;10.38;;;7.20;;
58015;SDS011;43809;52.110;20.964;2023-04-24T07:34:16;8.70;;;7.03;;
58015;SDS011;43809;52.110;20.964;2023-04-24T07:36:16;10.27;;;8.00;;
58015;SDS011;43809;52.110;20.964;2023-04-24T07:38:18;11.35;;;7.18;;
58015;SDS011;43809;52.110;20.964;2023-04-24T07:40:22;12.50;;;8.48;;
58015;SDS011;43809;52.110;20.964;2023-04-24T07:42:22;12.65;;;8.70;;
58015;SDS011;43809;52.110;20.964;2023-04-24T07:44:22;14.30;;;8.60;;
58015;SDS011;43809;52.110;20.964;2023-04-24T07:46:23;18.90;;;8.80;;
58015;SDS011;43809;52.110;20.964;2023-04-24T07:48:23;8.90;;;7.68;;
58015;SDS011;43809;52.110;20.964;2023-04-24T07:50:26;9.73;;;8.20;;
58015;SDS011;43809;52.110;20.964;2023-04-24T07:52:26;13.10;;;7.63;;
58015;SDS011;43809;52.110;20.964;2023-04-24T07:54:26;11.23;;;7.43;;
58015;SDS011;43809;52.110;20.964;2023-04-24T07:56:26;9.67;;;7.47;;
58015;SDS011;43809;52.110;20.964;2023-04-24T07:58:26;10.85;;;8.27;;
58015;SDS011;43809;52.110;20.964;2023-04-24T08:00:27;17.90;;;7.97;;
58015;SDS011;43809;52.110;20.964;2023-04-24T08:02:27;11.77;;;7.35;;
58015;SDS011;43809;52.110;20.964;2023-04-24T08:04:27;10.05;;;7.75;;
58015;SDS011;43809;52.110;20.964;2023-04-24T08:06:28;9.90;;;7.28;;
58015;SDS011;43809;52.110;20.964;2023-04-24T08:10:30;10.23;;;8.02;;
58015;SDS011;43809;52.110;20.964;2023-04-24T08:12:30;10.57;;;6.97;;
58015;SDS011;43809;52.110;20.964;2023-04-24T08:14:31;9.15;;;7.78;;
58015;SDS011;43809;52.110;20.964;2023-04-24T08:16:32;9.70;;;7.63;;
58015;SDS011;43809;52.110;20.964;2023-04-24T08:18:32;8.95;;;7.60;;
58015;SDS011;43809;52.110;20.964;2023-04-24T08:20:33;8.88;;;7.15;;
58015;SDS011;43809;52.110;20.964;2023-04-24T08:22:33;9.57;;;7.50;;
58015;SDS011;43809;52.110;20.964;2023-04-24T08:24:33;14.30;;;8.53;;
58015;SDS011;43809;52.110;20.964;2023-04-24T08:26:34;87.17;;;15.13;;
58015;SDS011;43809;52.110;20.964;2023-04-24T08:28:34;23.85;;;10.13;;
58015;SDS011;43809;52.110;20.964;2023-04-24T08:30:34;10.40;;;7.95;;
58015;SDS011;43809;52.110;20.964;2023-04-24T08:32:36;11.25;;;8.57;;
58015;SDS011;43809;52.110;20.964;2023-04-24T08:34:36;11.48;;;8.35;;
58015;SDS011;43809;52.110;20.964;2023-04-24T08:36:38;12.20;;;8.33;;
58015;SDS011;43809;52.110;20.964;2023-04-24T08:38:41;8.70;;;7.32;;
58015;SDS011;43809;52.110;20.964;2023-04-24T08:40:41;15.20;;;8.70;;
58015;SDS011;43809;52.110;20.964;2023-04-24T08:42:43;11.00;;;8.20;;
58015;SDS011;43809;52.110;20.964;2023-04-24T08:44:44;12.40;;;8.83;;
58015;SDS011;43809;52.110;20.964;2023-04-24T08:46:44;10.00;;;7.47;;
58015;SDS011;43809;52.110;20.964;2023-04-24T08:48:48;10.50;;;8.35;;
58015;SDS011;43809;52.110;20.964;2023-04-24T08:50:50;11.90;;;8.23;;
58015;SDS011;43809;52.110;20.964;2023-04-24T08:52:50;17.40;;;8.13;;
58015;SDS011;43809;52.110;20.964;2023-04-24T08:54:53;12.07;;;7.63;;
58015;SDS011;43809;52.110;20.964;2023-04-24T08:56:53;8.43;;;6.90;;
58015;SDS011;43809;52.110;20.964;2023-04-24T08:58:55;8.52;;;7.43;;
58015;SDS011;43809;52.110;20.964;2023-04-24T09:00:55;8.13;;;6.83;;
58015;SDS011;43809;52.110;20.964;2023-04-24T09:02:56;8.32;;;6.00;;
58015;SDS011;43809;52.110;20.964;2023-04-24T09:04:56;9.68;;;6.68;;
58015;SDS011;43809;52.110;20.964;2023-04-24T09:06:58;8.57;;;6.75;;
58015;SDS011;43809;52.110;20.964;2023-04-24T09:09:01;9.60;;;6.90;;
58015;SDS011;43809;52.110;20.964;2023-04-24T09:11:01;12.80;;;7.72;;
58015;SDS011;43809;52.110;20.964;2023-04-24T09:13:03;10.35;;;7.95;;
58015;SDS011;43809;52.110;20.964;2023-04-24T09:15:03;9.83;;;6.97;;
58015;SDS011;43809;52.110;20.964;2023-04-24T09:17:06;9.15;;;7.60;;
58015;SDS011;43809;52.110;20.964;2023-04-24T09:21:07;10.55;;;7.78;;
58015;SDS011;43809;52.110;20.964;2023-04-24T09:23:07;10.25;;;7.80;;
58015;SDS011;43809;52.110;20.964;2023-04-24T09:25:11;9.55;;;6.88;;
58015;SDS011;43809;52.110;20.964;2023-04-24T09:27:12;16.98;;;7.22;;
58015;SDS011;43809;52.110;20.964;2023-04-24T09:29:16;7.15;;;6.43;;
58015;SDS011;43809;52.110;20.964;2023-04-24T09:31:18;9.95;;;6.30;;
58015;SDS011;43809;52.110;20.964;2023-04-24T09:33:21;10.25;;;6.93;;
58015;SDS011;43809;52.110;20.964;2023-04-24T09:35:21;7.23;;;6.17;;
58015;SDS011;43809;52.110;20.964;2023-04-24T09:37:28;7.87;;;6.03;;
58015;SDS011;43809;52.110;20.964;2023-04-24T09:39:35;9.27;;;6.03;;
58015;SDS011;43809;52.110;20.964;2023-04-24T09:41:35;6.88;;;5.95;;
58015;SDS011;43809;52.110;20.964;2023-04-24T09:43:35;7.13;;;5.60;;
58015;SDS011;43809;52.110;20.964;2023-04-24T09:45:36;13.57;;;6.73;;
58015;SDS011;43809;52.110;20.964;2023-04-24T09:47:39;9.77;;;6.47;;
58015;SDS011;43809;52.110;20.964;2023-04-24T09:49:40;12.50;;;5.60;;
58015;SDS011;43809;52.110;20.964;2023-04-24T09:51:41;13.00;;;5.88;;
58015;SDS011;43809;52.110;20.964;2023-04-24T09:53:45;13.93;;;7.17;;
58015;SDS011;43809;52.110;20.964;2023-04-24T09:55:45;25.95;;;8.68;;
58015;SDS011;43809;52.110;20.964;2023-04-24T09:57:52;13.43;;;6.50;;
58015;SDS011;43809;52.110;20.964;2023-04-24T09:59:53;7.40;;;6.43;;
58015;SDS011;43809;52.110;20.964;2023-04-24T10:01:53;8.65;;;6.25;;
58015;SDS011;43809;52.110;20.964;2023-04-24T10:03:53;20.60;;;7.10;;
58015;SDS011;43809;52.110;20.964;2023-04-24T10:05:53;11.57;;;7.20;;
58015;SDS011;43809;52.110;20.964;2023-04-24T10:07:56;9.07;;;7.10;;
58015;SDS011;43809;52.110;20.964;2023-04-24T10:09:56;7.60;;;6.60;;
58015;SDS011;43809;52.110;20.964;2023-04-24T10:11:56;11.40;;;7.32;;
58015;SDS011;43809;52.110;20.964;2023-04-24T10:13:56;7.43;;;6.70;;
58015;SDS011;43809;52.110;20.964;2023-04-24T10:15:57;7.05;;;6.13;;
58015;SDS011;43809;52.110;20.964;2023-04-24T10:17:59;8.47;;;6.90;;
58015;SDS011;43809;52.110;20.964;2023-04-24T10:19:59;6.47;;;5.85;;
58015;SDS011;43809;52.110;20.964;2023-04-24T10:22:00;11.38;;;6.40;;
58015;SDS011;43809;52.110;20.964;2023-04-24T10:24:01;6.82;;;5.70;;
58015;SDS011;43809;52.110;20.964;2023-04-24T10:26:03;6.07;;;5.22;;
58015;SDS011;43809;52.110;20.964;2023-04-24T10:28:04;30.73;;;7.83;;
58015;SDS011;43809;52.110;20.964;2023-04-24T10:30:04;7.13;;;5.35;;
58015;SDS011;43809;52.110;20.964;2023-04-24T10:32:06;7.53;;;5.05;;
58015;SDS011;43809;52.110;20.964;2023-04-24T10:34:08;5.30;;;4.78;;
58015;SDS011;43809;52.110;20.964;2023-04-24T10:36:09;5.10;;;4.60;;
58015;SDS011;43809;52.110;20.964;2023-04-24T10:38:13;6.47;;;4.85;;
58015;SDS011;43809;52.110;20.964;2023-04-24T10:40:17;6.55;;;4.93;;
58015;SDS011;43809;52.110;20.964;2023-04-24T10:42:18;5.45;;;4.63;;
58015;SDS011;43809;52.110;20.964;2023-04-24T10:44:19;6.63;;;4.50;;
58015;SDS011;43809;52.110;20.964;2023-04-24T10:46:22;5.68;;;4.60;;
58015;SDS011;43809;52.110;20.964;2023-04-24T10:48:26;6.77;;;5.27;;
58015;SDS011;43809;52.110;20.964;2023-04-24T10:50:41;5.45;;;4.95;;
58015;SDS011;43809;52.110;20.964;2023-04-24T10:52:48;7.20;;;5.10;;
58015;SDS011;43809;52.110;20.964;2023-04-24T10:54:53;16.83;;;6.07;;
58015;SDS011;43809;52.110;20.964;2023-04-24T10:59:21;9.93;;;5.50;;
58015;SDS011;43809;52.110;20.964;2023-04-24T11:01:24;7.28;;;5.75;;
58015;SDS011;43809;52.110;20.964;2023-04-24T11:03:26;7.88;;;6.45;;
58015;SDS011;43809;52.110;20.964;2023-04-24T11:10:05;5.68;;;5.10;;
58015;SDS011;43809;52.110;20.964;2023-04-24T11:12:09;7.57;;;6.28;;
58015;SDS011;43809;52.110;20.964;2023-04-24T11:14:10;5.38;;;4.70;;
58015;SDS011;43809;52.110;20.964;2023-04-24T11:16:14;5.68;;;4.63;;
58015;SDS011;43809;52.110;20.964;2023-04-24T11:18:15;20.45;;;6.63;;
58015;SDS011;43809;52.110;20.964;2023-04-24T11:20:16;11.65;;;5.60;;
58015;SDS011;43809;52.110;20.964;2023-04-24T11:22:20;7.07;;;5.90;;
58015;SDS011;43809;52.110;20.964;2023-04-24T11:26:26;7.60;;;5.13;;
58015;SDS011;43809;52.110;20.964;2023-04-24T11:28:32;19.98;;;7.10;;
58015;SDS011;43809;52.110;20.964;2023-04-24T11:30:32;13.53;;;6.33;;
58015;SDS011;43809;52.110;20.964;2023-04-24T11:34:33;12.27;;;6.33;;
58015;SDS011;43809;52.110;20.964;2023-04-24T11:36:34;7.63;;;5.70;;
58015;SDS011;43809;52.110;20.964;2023-04-24T11:38:34;7.43;;;6.03;;
58015;SDS011;43809;52.110;20.964;2023-04-24T11:40:35;13.38;;;6.90;;
58015;SDS011;43809;52.110;20.964;2023-04-24T11:42:37;13.13;;;6.50;;
58015;SDS011;43809;52.110;20.964;2023-04-24T11:44:44;9.40;;;6.80;;
58015;SDS011;43809;52.110;20.964;2023-04-24T11:46:47;7.97;;;6.82;;
58015;SDS011;43809;52.110;20.964;2023-04-24T11:48:47;33.22;;;8.25;;
58015;SDS011;43809;52.110;20.964;2023-04-24T11:50:48;14.57;;;7.00;;
58015;SDS011;43809;52.110;20.964;2023-04-24T11:52:48;7.28;;;5.18;;
58015;SDS011;43809;52.110;20.964;2023-04-24T11:54:49;7.97;;;5.43;;
58015;SDS011;43809;52.110;20.964;2023-04-24T11:56:50;8.25;;;5.85;;
58015;SDS011;43809;52.110;20.964;2023-04-24T11:58:53;9.68;;;6.50;;
58015;SDS011;43809;52.110;20.964;2023-04-24T12:00:57;77.25;;;12.45;;
58015;SDS011;43809;52.110;20.964;2023-04-24T12:03:10;10.20;;;6.22;;
58015;SDS011;43809;52.110;20.964;2023-04-24T12:07:21;6.40;;;5.60;;
58015;SDS011;43809;52.110;20.964;2023-04-24T12:09:21;6.85;;;5.93;;
58015;SDS011;43809;52.110;20.964;2023-04-24T12:11:21;7.60;;;5.95;;
58015;SDS011;43809;52.110;20.964;2023-04-24T12:13:21;7.30;;;6.17;;
58015;SDS011;43809;52.110;20.964;2023-04-24T12:15:22;20.95;;;6.90;;
58015;SDS011;43809;52.110;20.964;2023-04-24T12:17:26;6.65;;;5.95;;